NY32 weather

CLOSED Fort Hill Airport
West Bloomfield, New York, United States

Public forecast

Using degrees Fahrenheit for public forecast. Weather courtesy of forecast.io.

METAR (pilot weather report)

Closest report is Greater Rochester International Airport, 14.1 nm (26.2 km) NNW. Retrieved 2019/05/26 10:54 UTC (10 minutes ago):

KROC 261054Z 25008KT 10SM BKN026 19/17 A2992 RMK AO2 SLP130 T01940172

TAF (pilot weather forecast)

Closest forecast is Greater Rochester International Airport, 14.1 nm (26.2 km) NNW. Retrieved 2019/05/26 06:30 UTC (5 hours ago):

TAF KROC 260528Z 2606/2706 24009KT P6SM FEW030 FM261200 28009KT P6SM FEW250 FM262000 30012KT P6SM SCT250 FM262300 30008KT P6SM SCT250